Time;durP1;ratioP1;P1;durP2;ratioP2;P2;SDS_P1;SDS_P2;PMS_P1;PMS_P2;Temp;Humidity;BMP_temperature;BMP_pressure;BME280_temperature;BME280_humidity;BME280_pressure;Samples;Min_cycle;Max_cycle;Signal;HPM_P1;HPM_P2
2022/11/03 00:00:07;;;;;;;;;;;;;;;;;;354305;27;995;-64
2022/11/03 00:00:17;;;;;;;;;;;;;;;;;;354323;27;785;-64
2022/11/03 00:00:27;;;;;;;;;;;;;;;;;;354351;27;909;-63
2022/11/03 00:00:37;;;;;;;;;;;;;;;;;;353992;27;1604;-64
2022/11/03 00:00:47;;;;;;;;;;;;;;;;;;354306;27;928;-64
2022/11/03 00:00:59;;;;;;;;;;;;;;;;;;354305;27;1051;-64
2022/11/03 00:01:10;;;;;;;;;;;;;;;;;;354377;27;940;-65
2022/11/03 00:01:20;;;;;;;;;;;;;;;;;;354387;27;809;-63
2022/11/03 00:01:31;;;;;;;;;;;;;;;;;;354294;27;932;-64
2022/11/03 00:01:43;;;;;;;;;;;;;;;;;;354342;27;916;-64
2022/11/03 00:01:53;;;;;;;;;;;;;;;;;;354274;27;935;-63
2022/11/03 00:02:03;;;;;;;;;;;;;;;;;;354355;27;825;-64
2022/11/03 00:02:13;;;;;;;;;;;;;;;;;;354374;27;893;-65
2022/11/03 00:02:24;;;;;;;;;;;;;;;;;;354285;27;1019;-64
2022/11/03 00:02:34;;;;;;;;;;;;;;;;;;354319;27;920;-64
2022/11/03 00:02:44;;;;;;;;;;;;;;;;;;354324;27;967;-64
2022/11/03 00:02:54;;;;;;;;;;;;;;;;;;354310;27;778;-64
2022/11/03 00:03:04;;;;;;;;;;;;;;;;;;354373;27;943;-64
2022/11/03 00:03:14;;;;;;;;;;;;;;;;;;354347;27;923;-64
2022/11/03 00:03:25;;;;;;;;;;;;;;;;;;354366;27;885;-64
2022/11/03 00:03:35;;;;;;;;;;;;;;;;;;354314;27;951;-64
2022/11/03 00:03:46;;;;;;;;;;;;;;;;;;353894;27;1478;-64
2022/11/03 00:03:56;;;;;;;;;;;;;;;;;;354230;27;1253;-64
2022/11/03 00:04:08;;;;;;;;;;;;;;;;;;354334;27;798;-64
2022/11/03 00:04:19;;;;;;;;;;;;;;;;;;354349;27;888;-64
2022/11/03 00:04:29;;;;;;;;;;;;;;;;;;354252;27;1337;-64
2022/11/03 00:04:39;;;;;;;;;;;;;;;;;;354367;27;792;-64
2022/11/03 00:04:49;;;;;;;;;;;;;;;;;;354258;27;2041;-64
2022/11/03 00:06:03;;;;;;;;;;;;;;;;;;354370;27;912;-64
2022/11/03 00:06:05;;;;;;;;;;;;;;;;;;354233;27;968;-64
2022/11/03 00:06:15;;;;;;;;;;;;;;;;;;354299;27;1058;-64
2022/11/03 00:06:25;;;;;;;;;;;;;;;;;;354415;27;951;-64
2022/11/03 00:06:35;;;;;;;;;;;;;;;;;;354296;27;988;-64
2022/11/03 00:06:47;;;;;;;;;;;;;;;;;;354349;27;861;-64
2022/11/03 00:06:57;;;;;;;;;;;;;;;;;;354284;27;923;-64
2022/11/03 00:07:07;;;;;;;;;;;;;;;;;;354314;27;948;-63
2022/11/03 00:07:21;;;;;;;;;;;;;;;;;;354355;27;817;-64
2022/11/03 00:07:31;;;;;;;;;;;;;;;;;;354381;27;876;-64
2022/11/03 00:07:41;;;;;;;;;;;;;;;;;;354210;27;1581;-64
2022/11/03 00:07:51;;;;;;;;;;;;;;;;;;354812;27;1561;-65
2022/11/03 00:08:02;;;;;;;;;;;;;;;;;;354344;27;944;-65
2022/11/03 00:08:12;;;;;;;;;;;;;;;;;;354340;27;992;-64
2022/11/03 00:08:22;;;;;;;;;;;;;;;;;;354365;27;856;-64
2022/11/03 00:08:32;;;;;;;;;;;;;;;;;;354348;27;983;-64
2022/11/03 00:08:42;;;;;;;;;;;;;;;;;;354274;27;940;-64
2022/11/03 00:08:56;;;;;;;;;;;;;;;;;;354347;27;966;-64
2022/11/03 00:09:08;;;;;;;;;;;;;;;;;;354376;27;959;-64
2022/11/03 00:09:19;;;;;;;;;;;;;;;;;;354288;27;936;-64
2022/11/03 00:09:30;;;;;;;;;;;;;;;;;;354393;27;1027;-64
2022/11/03 00:09:40;;;;;;;;;;;;;;;;;;354314;27;944;-64
2022/11/03 00:09:50;;;;;;;;;;;;;;;;;;354365;27;849;-64
2022/11/03 00:10:00;;;;;;;;;;;;;;;;;;354377;27;952;-64
2022/11/03 00:10:10;;;;;;;;;;;;;;;;;;354274;27;909;-64
2022/11/03 00:10:21;;;;;;;;;;;;;;;;;;354323;27;788;-64
2022/11/03 00:10:31;;;;;;;;;;;;;;;;;;354375;27;932;-64
2022/11/03 00:10:41;;;;;;;;;;;;;;;;;;353883;27;1560;-64
2022/11/03 00:10:51;;;;;;;;;;;;;;;;;;354318;27;987;-63
2022/11/03 00:11:07;;;;;;;;;;;;;;;;;;354321;27;807;-64
2022/11/03 00:11:17;;;;;;;;;;;;;;;;;;354295;27;1003;-64
2022/11/03 00:11:28;;;;;;;;;;;;;;;;;;354387;27;881;-64
2022/11/03 00:11:39;;;;;;;;;;;;;;;;;;354342;27;1014;-64
2022/11/03 00:11:49;;;;;;;;;;;;;;;;;;354314;27;920;-64
2022/11/03 00:12:00;;;;;;;;;;;;;;;;;;354345;27;999;-64
2022/11/03 00:12:10;;;;;;;;;;;;;;;;;;354343;27;976;-64
2022/11/03 00:12:21;;;;;;;;;;;;;;;;;;354385;27;975;-64
2022/11/03 00:12:32;;;;;;;;;;;;;;;;;;354337;27;895;-63
2022/11/03 00:12:42;;;;;;;;;;;;;;;;;;354345;27;1002;-64
2022/11/03 00:12:52;;;;;;;;;;;;;;;;;;354292;27;990;-64
2022/11/03 00:13:02;;;;;;;;;;;;;;;;;;354324;27;1036;-64
2022/11/03 00:13:13;;;;;;;;;;;;;;;;;;354325;27;849;-64
2022/11/03 00:13:23;;;;;;;;;;;;;;;;;;354349;27;916;-64
2022/11/03 00:13:33;;;;;;;;;;;;;;;;;;354351;27;1011;-64
2022/11/03 00:13:43;;;;;;;;;;;;;;;;;;354278;27;844;-65
2022/11/03 00:13:55;;;;;;;;;;;;;;;;;;354373;27;987;-64
2022/11/03 00:14:06;;;;;;;;;;;;;;;;;;354350;27;789;-64
2022/11/03 00:14:16;;;;;;;;;;;;;;;;;;354236;27;1000;-64
2022/11/03 00:14:27;;;;;;;;;;;;;;;;;;354402;27;773;-64
2022/11/03 00:14:37;;;;;;;;;;;;;;;;;;354322;27;920;-64
2022/11/03 00:14:47;;;;;;;;;;;;;;;;;;354332;27;924;-63
2022/11/03 00:14:57;;;;;;;;;;;;;;;;;;354214;27;879;-64
2022/11/03 00:15:08;;;;;;;;;;;;;;;;;;354353;27;916;-64
2022/11/03 00:15:18;;;;;;;;;;;;;;;;;;354354;27;762;-64
2022/11/03 00:15:28;;;;;;;;;;;;;;;;;;354366;27;979;-64
2022/11/03 00:15:46;;;;;;;;;;;;;;;;;;354300;27;975;-64
2022/11/03 00:15:56;;;;;;;;;;;;;;;;;;354376;27;435;-64
2022/11/03 00:16:07;;;;;;;;;;;;;;;;;;354323;27;939;-64
2022/11/03 00:16:17;;;;;;;;;;;;;;;;;;354315;27;891;-64
2022/11/03 00:16:28;;;;;;;;;;;;;;;;;;354315;27;991;-63
2022/11/03 00:16:38;;;;;;;;;;;;;;;;;;354410;27;770;-64
2022/11/03 00:16:49;;;;;;;;;;;;;;;;;;354366;27;848;-63
2022/11/03 00:16:59;;;;;;;;;;;;;;;;;;354250;27;920;-64
2022/11/03 00:17:09;;;;;;;;;;;;;;;;;;354293;27;987;-64
2022/11/03 00:17:19;;;;;;;;;;;;;;;;;;354353;27;798;-64
2022/11/03 00:17:29;;;;;;;;;;;;;;;;;;354350;27;924;-64
2022/11/03 00:17:40;;;;;;;;;;;;;;;;;;354297;27;893;-66
2022/11/03 00:17:50;;;;;;;;;;;;;;;;;;354366;27;1106;-64
2022/11/03 00:18:00;;;;;;;;;;;;;;;;;;354347;27;796;-64
2022/11/03 00:18:10;;;;;;;;;;;;;;;;;;354288;27;1141;-64
2022/11/03 00:18:20;;;;;;;;;;;;;;;;;;354304;27;931;-64
2022/11/03 00:18:31;;;;;;;;;;;;;;;;;;354347;27;924;-63
2022/11/03 00:18:41;;;;;;;;;;;;;;;;;;354329;27;916;-64
2022/11/03 00:18:51;;;;;;;;;;;;;;;;;;354334;27;979;-64
2022/11/03 00:19:02;;;;;;;;;;;;;;;;;;354239;27;951;-65
2022/11/03 00:19:14;;;;;;;;;;;;;;;;;;354283;27;822;-64
2022/11/03 00:19:25;;;;;;;;;;;;;;;;;;354334;27;940;-65
2022/11/03 00:19:35;;;;;;;;;;;;;;;;;;354819;27;1263;-63
2022/11/03 00:19:45;;;;;;;;;;;;;;;;;;355727;27;1198;-63
2022/11/03 00:19:55;;;;;;;;;;;;;;;;;;355707;27;880;-63
2022/11/03 00:20:06;;;;;;;;;;;;;;;;;;354851;27;1240;-64
2022/11/03 00:20:16;;;;;;;;;;;;;;;;;;354265;27;848;-64
2022/11/03 00:20:26;;;;;;;;;;;;;;;;;;354388;27;974;-64
2022/11/03 00:20:36;;;;;;;;;;;;;;;;;;354304;27;978;-64
2022/11/03 00:20:54;;;;;;;;;;;;;;;;;;354322;27;769;-64
2022/11/03 00:21:08;;;;;;;;;;;;;;;;;;355186;27;1334;-64
2022/11/03 00:21:18;;;;;;;;;;;;;;;;;;355782;27;766;-64
2022/11/03 00:21:29;;;;;;;;;;;;;;;;;;355760;27;920;-64
2022/11/03 00:21:39;;;;;;;;;;;;;;;;;;355592;27;1315;-64
2022/11/03 00:21:49;;;;;;;;;;;;;;;;;;355741;27;947;-64
2022/11/03 00:22:00;;;;;;;;;;;;;;;;;;355794;27;979;-64
2022/11/03 00:22:10;;;;;;;;;;;;;;;;;;355779;27;797;-64
2022/11/03 00:22:20;;;;;;;;;;;;;;;;;;355797;27;899;-65
2022/11/03 00:22:32;;;;;;;;;;;;;;;;;;355724;27;903;-64
2022/11/03 00:22:42;;;;;;;;;;;;;;;;;;355794;27;930;-64
2022/11/03 00:22:52;;;;;;;;;;;;;;;;;;355759;27;908;-64
2022/11/03 00:23:02;;;;;;;;;;;;;;;;;;355773;27;944;-64
2022/11/03 00:23:12;;;;;;;;;;;;;;;;;;355743;27;963;-64
2022/11/03 00:23:26;;;;;;;;;;;;;;;;;;355677;27;991;-64
2022/11/03 00:23:38;;;;;;;;;;;;;;;;;;355782;27;892;-64
2022/11/03 00:23:49;;;;;;;;;;;;;;;;;;354575;27;2081;-64
2022/11/03 00:24:01;;;;;;;;;;;;;;;;;;354925;27;975;-64
2022/11/03 00:24:12;;;;;;;;;;;;;;;;;;355675;27;920;-64
2022/11/03 00:24:22;;;;;;;;;;;;;;;;;;355769;27;983;-64
2022/11/03 00:24:32;;;;;;;;;;;;;;;;;;355548;27;1019;-64
2022/11/03 00:24:42;;;;;;;;;;;;;;;;;;355791;27;927;-64
2022/11/03 00:24:52;;;;;;;;;;;;;;;;;;355675;27;1905;-64
2022/11/03 00:25:03;;;;;;;;;;;;;;;;;;355510;27;1017;-64
2022/11/03 00:25:13;;;;;;;;;;;;;;;;;;355677;27;951;-64
2022/11/03 00:25:23;;;;;;;;;;;;;;;;;;355703;27;848;-64
2022/11/03 00:25:33;;;;;;;;;;;;;;;;;;355676;27;908;-64
2022/11/03 00:25:43;;;;;;;;;;;;;;;;;;355768;27;920;-64
2022/11/03 00:25:54;;;;;;;;;;;;;;;;;;355695;27;781;-64
2022/11/03 00:26:06;;;;;;;;;;;;;;;;;;355725;27;919;-64
2022/11/03 00:26:17;;;;;;;;;;;;;;;;;;355780;27;817;-63
2022/11/03 00:26:28;;;;;;;;;;;;;;;;;;355798;27;959;-64
2022/11/03 00:26:38;;;;;;;;;;;;;;;;;;355712;27;928;-64
2022/11/03 00:26:48;;;;;;;;;;;;;;;;;;355768;27;844;-64
2022/11/03 00:26:59;;;;;;;;;;;;;;;;;;355780;27;940;-64
2022/11/03 00:27:09;;;;;;;;;;;;;;;;;;355641;27;980;-65
2022/11/03 00:27:19;;;;;;;;;;;;;;;;;;355691;27;916;-64
2022/11/03 00:27:29;;;;;;;;;;;;;;;;;;355741;27;900;-64
2022/11/03 00:27:39;;;;;;;;;;;;;;;;;;355662;27;903;-64
2022/11/03 00:27:53;;;;;;;;;;;;;;;;;;355743;27;869;-64
2022/11/03 00:28:03;;;;;;;;;;;;;;;;;;355748;27;935;-64
2022/11/03 00:28:13;;;;;;;;;;;;;;;;;;355723;27;825;-64
2022/11/03 00:28:23;;;;;;;;;;;;;;;;;;355676;27;1079;-64
2022/11/03 00:28:35;;;;;;;;;;;;;;;;;;355756;27;955;-64
2022/11/03 00:28:46;;;;;;;;;;;;;;;;;;355731;27;927;-64
2022/11/03 00:28:59;;;;;;;;;;;;;;;;;;355776;27;928;-64
2022/11/03 00:29:13;;;;;;;;;;;;;;;;;;355794;27;990;-64
2022/11/03 00:29:26;;;;;;;;;;;;;;;;;;355626;27;920;-64
2022/11/03 00:29:36;;;;;;;;;;;;;;;;;;355741;27;967;-64
2022/11/03 00:29:46;;;;;;;;;;;;;;;;;;355692;27;1094;-65
2022/11/03 00:29:56;;;;;;;;;;;;;;;;;;355695;27;875;-64
2022/11/03 00:30:06;;;;;;;;;;;;;;;;;;355726;27;955;-64
2022/11/03 00:30:17;;;;;;;;;;;;;;;;;;355690;27;994;-64
2022/11/03 00:30:27;;;;;;;;;;;;;;;;;;355687;27;809;-65
2022/11/03 00:30:38;;;;;;;;;;;;;;;;;;355733;27;1042;-64
2022/11/03 00:30:48;;;;;;;;;;;;;;;;;;355716;27;912;-64
2022/11/03 00:31:00;;;;;;;;;;;;;;;;;;354835;27;1478;-64
2022/11/03 00:31:11;;;;;;;;;;;;;;;;;;355544;27;964;-64
2022/11/03 00:31:23;;;;;;;;;;;;;;;;;;355437;27;1529;-64
2022/11/03 00:31:34;;;;;;;;;;;;;;;;;;355530;27;963;-64
2022/11/03 00:31:44;;;;;;;;;;;;;;;;;;355731;27;986;-63
2022/11/03 00:31:54;;;;;;;;;;;;;;;;;;355692;27;1011;-64
2022/11/03 00:32:04;;;;;;;;;;;;;;;;;;355754;27;773;-63
2022/11/03 00:32:14;;;;;;;;;;;;;;;;;;354007;27;2025;-64
2022/11/03 00:32:25;;;;;;;;;;;;;;;;;;354174;27;874;-64
2022/11/03 00:32:35;;;;;;;;;;;;;;;;;;354293;27;908;-64
2022/11/03 00:32:45;;;;;;;;;;;;;;;;;;354275;27;979;-63
2022/11/03 00:32:57;;;;;;;;;;;;;;;;;;354192;27;806;-64
2022/11/03 00:33:07;;;;;;;;;;;;;;;;;;354305;27;924;-64
2022/11/03 00:33:17;;;;;;;;;;;;;;;;;;354283;27;1011;-64
2022/11/03 00:33:34;;;;;;;;;;;;;;;;;;354212;27;1076;-64
2022/11/03 00:33:45;;;;;;;;;;;;;;;;;;354213;27;948;-64
2022/11/03 00:33:55;;;;;;;;;;;;;;;;;;354275;27;950;-63
2022/11/03 00:34:06;;;;;;;;;;;;;;;;;;353821;27;1943;-63
2022/11/03 00:34:16;;;;;;;;;;;;;;;;;;355095;27;1643;-64
2022/11/03 00:34:26;;;;;;;;;;;;;;;;;;355656;27;817;-63
2022/11/03 00:34:36;;;;;;;;;;;;;;;;;;355710;27;924;-64
2022/11/03 00:34:46;;;;;;;;;;;;;;;;;;355755;27;908;-64
2022/11/03 00:34:57;;;;;;;;;;;;;;;;;;355736;27;932;-64
2022/11/03 00:35:07;;;;;;;;;;;;;;;;;;355651;27;808;-64
2022/11/03 00:35:17;;;;;;;;;;;;;;;;;;355684;27;1200;-64
2022/11/03 00:35:27;;;;;;;;;;;;;;;;;;355746;27;920;-64
2022/11/03 00:35:37;;;;;;;;;;;;;;;;;;355718;27;920;-63
2022/11/03 00:35:47;;;;;;;;;;;;;;;;;;355624;27;769;-64
2022/11/03 00:36:01;;;;;;;;;;;;;;;;;;355724;27;936;-63
2022/11/03 00:36:12;;;;;;;;;;;;;;;;;;355748;27;853;-63
2022/11/03 00:36:24;;;;;;;;;;;;;;;;;;355712;27;754;-64
2022/11/03 00:36:35;;;;;;;;;;;;;;;;;;355754;27;844;-64
2022/11/03 00:36:46;;;;;;;;;;;;;;;;;;355760;27;983;-63
2022/11/03 00:36:56;;;;;;;;;;;;;;;;;;355747;27;979;-63
2022/11/03 00:37:06;;;;;;;;;;;;;;;;;;355753;27;1050;-64
2022/11/03 00:37:16;;;;;;;;;;;;;;;;;;355691;27;963;-64
2022/11/03 00:37:26;;;;;;;;;;;;;;;;;;355737;27;979;-63
2022/11/03 00:37:36;;;;;;;;;;;;;;;;;;355674;27;796;-64
2022/11/03 00:37:47;;;;;;;;;;;;;;;;;;355644;27;955;-64
2022/11/03 00:37:57;;;;;;;;;;;;;;;;;;355700;27;923;-64
2022/11/03 00:38:07;;;;;;;;;;;;;;;;;;355734;27;916;-64
2022/11/03 00:38:17;;;;;;;;;;;;;;;;;;355705;27;1054;-64
2022/11/03 00:38:28;;;;;;;;;;;;;;;;;;355700;27;900;-64
2022/11/03 00:38:38;;;;;;;;;;;;;;;;;;355704;27;928;-65
2022/11/03 00:38:49;;;;;;;;;;;;;;;;;;355764;27;924;-64
2022/11/03 00:38:59;;;;;;;;;;;;;;;;;;355767;27;813;-64
2022/11/03 00:39:10;;;;;;;;;;;;;;;;;;355735;27;924;-64
2022/11/03 00:39:20;;;;;;;;;;;;;;;;;;355769;27;876;-64
2022/11/03 00:39:30;;;;;;;;;;;;;;;;;;355740;27;979;-64
2022/11/03 00:39:40;;;;;;;;;;;;;;;;;;355757;27;833;-64
2022/11/03 00:39:51;;;;;;;;;;;;;;;;;;355680;27;906;-64
2022/11/03 00:40:01;;;;;;;;;;;;;;;;;;355724;27;785;-64
2022/11/03 00:40:11;;;;;;;;;;;;;;;;;;355733;27;974;-64
2022/11/03 00:40:21;;;;;;;;;;;;;;;;;;355770;27;947;-64
2022/11/03 00:40:31;;;;;;;;;;;;;;;;;;355632;27;979;-64
2022/11/03 00:40:42;;;;;;;;;;;;;;;;;;355691;27;1012;-64
2022/11/03 00:40:56;;;;;;;;;;;;;;;;;;355734;27;853;-64
2022/11/03 00:41:06;;;;;;;;;;;;;;;;;;353839;27;1727;-63
2022/11/03 00:41:19;;;;;;;;;;;;;;;;;;354288;27;840;-64
2022/11/03 00:41:29;;;;;;;;;;;;;;;;;;354320;27;916;-64
2022/11/03 00:41:39;;;;;;;;;;;;;;;;;;354269;27;888;-64
2022/11/03 00:41:50;;;;;;;;;;;;;;;;;;354371;27;941;-64
2022/11/03 00:42:00;;;;;;;;;;;;;;;;;;354236;27;872;-64
2022/11/03 00:42:10;;;;;;;;;;;;;;;;;;354328;27;912;-64
2022/11/03 00:42:20;;;;;;;;;;;;;;;;;;354290;27;935;-64
2022/11/03 00:42:30;;;;;;;;;;;;;;;;;;354350;27;809;-64
2022/11/03 00:42:41;;;;;;;;;;;;;;;;;;354243;27;963;-65
2022/11/03 00:42:51;;;;;;;;;;;;;;;;;;354322;27;968;-65
2022/11/03 00:43:01;;;;;;;;;;;;;;;;;;353860;27;1732;-64
2022/11/03 00:43:13;;;;;;;;;;;;;;;;;;354301;27;1067;-64
2022/11/03 00:43:24;;;;;;;;;;;;;;;;;;354228;27;952;-64
2022/11/03 00:43:35;;;;;;;;;;;;;;;;;;354243;27;1181;-64
2022/11/03 00:43:46;;;;;;;;;;;;;;;;;;354333;27;896;-64
2022/11/03 00:43:56;;;;;;;;;;;;;;;;;;354308;27;974;-64
2022/11/03 00:44:09;;;;;;;;;;;;;;;;;;354205;27;924;-64
2022/11/03 00:44:19;;;;;;;;;;;;;;;;;;354325;27;939;-64
2022/11/03 00:44:29;;;;;;;;;;;;;;;;;;354302;27;911;-64
2022/11/03 00:44:39;;;;;;;;;;;;;;;;;;354221;27;806;-64
2022/11/03 00:44:49;;;;;;;;;;;;;;;;;;354203;27;1963;-64
2022/11/03 00:45:00;;;;;;;;;;;;;;;;;;354334;27;1715;-64
2022/11/03 00:45:10;;;;;;;;;;;;;;;;;;355769;27;836;-64
2022/11/03 00:45:20;;;;;;;;;;;;;;;;;;355678;27;1070;-64
2022/11/03 00:45:30;;;;;;;;;;;;;;;;;;355647;27;840;-64
2022/11/03 00:45:40;;;;;;;;;;;;;;;;;;355707;27;994;-64
2022/11/03 00:45:51;;;;;;;;;;;;;;;;;;355731;27;1601;-64
2022/11/03 00:46:03;;;;;;;;;;;;;;;;;;355690;27;782;-64
2022/11/03 00:46:14;;;;;;;;;;;;;;;;;;355648;27;983;-64
2022/11/03 00:46:24;;;;;;;;;;;;;;;;;;355731;27;997;-64
2022/11/03 00:46:35;;;;;;;;;;;;;;;;;;355776;27;847;-63
2022/11/03 00:46:45;;;;;;;;;;;;;;;;;;355693;27;935;-63
2022/11/03 00:46:55;;;;;;;;;;;;;;;;;;355637;27;1038;-64
2022/11/03 00:47:05;;;;;;;;;;;;;;;;;;355741;27;840;-64
2022/11/03 00:47:15;;;;;;;;;;;;;;;;;;355742;27;963;-63
2022/11/03 00:47:26;;;;;;;;;;;;;;;;;;355773;27;817;-64
2022/11/03 00:48:28;;;;;;;;;;;;;;;;;;355659;27;911;-64
2022/11/03 00:48:36;;;;;;;;;;;;;;;;;;355540;27;1185;-65
2022/11/03 00:48:46;;;;;;;;;;;;;;;;;;355749;27;987;-64
2022/11/03 00:48:56;;;;;;;;;;;;;;;;;;355669;27;967;-64
2022/11/03 00:49:06;;;;;;;;;;;;;;;;;;355711;27;916;-63
2022/11/03 00:49:17;;;;;;;;;;;;;;;;;;355714;27;947;-64
2022/11/03 00:49:27;;;;;;;;;;;;;;;;;;355703;27;963;-64
2022/11/03 00:49:37;;;;;;;;;;;;;;;;;;355712;27;876;-64
2022/11/03 00:49:47;;;;;;;;;;;;;;;;;;355721;27;970;-64
2022/11/03 00:49:57;;;;;;;;;;;;;;;;;;355683;27;892;-65
2022/11/03 00:50:08;;;;;;;;;;;;;;;;;;355678;27;893;-65
2022/11/03 00:50:18;;;;;;;;;;;;;;;;;;355700;27;867;-64
2022/11/03 00:50:28;;;;;;;;;;;;;;;;;;355783;27;888;-63
2022/11/03 00:50:38;;;;;;;;;;;;;;;;;;355679;27;912;-63
2022/11/03 00:50:48;;;;;;;;;;;;;;;;;;355684;27;875;-64
2022/11/03 00:51:08;;;;;;;;;;;;;;;;;;355470;27;1497;-64
2022/11/03 00:51:22;;;;;;;;;;;;;;;;;;354240;27;963;-64
2022/11/03 00:51:36;;;;;;;;;;;;;;;;;;354292;27;932;-64
2022/11/03 00:51:46;;;;;;;;;;;;;;;;;;354244;27;916;-64
2022/11/03 00:51:56;;;;;;;;;;;;;;;;;;354251;27;912;-63
2022/11/03 00:52:06;;;;;;;;;;;;;;;;;;354235;27;806;-63
2022/11/03 00:52:16;;;;;;;;;;;;;;;;;;354229;27;912;-63
2022/11/03 00:52:27;;;;;;;;;;;;;;;;;;354198;27;932;-64
2022/11/03 00:52:37;;;;;;;;;;;;;;;;;;354219;27;1110;-64
2022/11/03 00:52:47;;;;;;;;;;;;;;;;;;354285;27;884;-63
2022/11/03 00:52:57;;;;;;;;;;;;;;;;;;354274;27;861;-63
2022/11/03 00:53:07;;;;;;;;;;;;;;;;;;354274;27;960;-63
2022/11/03 00:53:18;;;;;;;;;;;;;;;;;;354239;27;967;-63
2022/11/03 00:53:29;;;;;;;;;;;;;;;;;;354356;27;845;-63
2022/11/03 00:53:43;;;;;;;;;;;;;;;;;;354288;27;884;-63
2022/11/03 00:53:54;;;;;;;;;;;;;;;;;;353816;27;1980;-63
2022/11/03 00:54:05;;;;;;;;;;;;;;;;;;355443;27;1282;-63
2022/11/03 00:54:16;;;;;;;;;;;;;;;;;;355715;27;982;-64
2022/11/03 00:54:26;;;;;;;;;;;;;;;;;;355684;27;894;-64
2022/11/03 00:54:36;;;;;;;;;;;;;;;;;;355677;27;975;-63
2022/11/03 00:54:46;;;;;;;;;;;;;;;;;;355707;27;979;-64
2022/11/03 00:54:56;;;;;;;;;;;;;;;;;;355686;27;883;-64
2022/11/03 00:55:07;;;;;;;;;;;;;;;;;;355697;27;919;-64
2022/11/03 00:55:17;;;;;;;;;;;;;;;;;;355310;27;1190;-65
2022/11/03 00:55:27;;;;;;;;;;;;;;;;;;355735;27;943;-64
2022/11/03 00:55:37;;;;;;;;;;;;;;;;;;355721;27;820;-64
2022/11/03 00:55:48;;;;;;;;;;;;;;;;;;355704;27;915;-64
2022/11/03 00:55:59;;;;;;;;;;;;;;;;;;355740;27;990;-64
2022/11/03 00:56:11;;;;;;;;;;;;;;;;;;354558;27;1219;-64
2022/11/03 00:56:22;;;;;;;;;;;;;;;;;;354297;27;980;-64
2022/11/03 00:56:34;;;;;;;;;;;;;;;;;;354301;27;1010;-64
2022/11/03 00:56:44;;;;;;;;;;;;;;;;;;354214;27;876;-63
2022/11/03 00:56:54;;;;;;;;;;;;;;;;;;354201;27;956;-63
2022/11/03 00:57:04;;;;;;;;;;;;;;;;;;354250;27;840;-64
2022/11/03 00:57:15;;;;;;;;;;;;;;;;;;354279;27;958;-64
2022/11/03 00:57:25;;;;;;;;;;;;;;;;;;354244;27;904;-64
2022/11/03 00:57:35;;;;;;;;;;;;;;;;;;354312;27;947;-64
2022/11/03 00:57:45;;;;;;;;;;;;;;;;;;354228;27;1149;-64
2022/11/03 00:57:56;;;;;;;;;;;;;;;;;;354247;27;916;-64
2022/11/03 00:58:06;;;;;;;;;;;;;;;;;;354248;27;967;-63
2022/11/03 00:58:16;;;;;;;;;;;;;;;;;;354224;27;1183;-63
2022/11/03 00:58:26;;;;;;;;;;;;;;;;;;354336;27;1043;-64
2022/11/03 00:58:37;;;;;;;;;;;;;;;;;;354234;27;1030;-64
2022/11/03 00:58:47;;;;;;;;;;;;;;;;;;354217;27;891;-64
2022/11/03 00:58:59;;;;;;;;;;;;;;;;;;354307;27;856;-64
2022/11/03 00:59:09;;;;;;;;;;;;;;;;;;354286;27;916;-64
2022/11/03 00:59:19;;;;;;;;;;;;;;;;;;354297;27;916;-64
2022/11/03 00:59:29;;;;;;;;;;;;;;;;;;354265;27;912;-64
2022/11/03 00:59:39;;;;;;;;;;;;;;;;;;354273;27;942;-64
2022/11/03 00:59:50;;;;;;;;;;;;;;;;;;354295;28;956;-64
2022/11/03 01:00:00;;;;;;;;;;;;;;;;;;354264;27;773;-64
2022/11/03 01:00:11;;;;;;;;;;;;;;;;;;354260;27;1094;-64
2022/11/03 01:00:21;;;;;;;;;;;;;;;;;;354251;27;828;-64
2022/11/03 01:00:31;;;;;;;;;;;;;;;;;;354268;27;1043;-64
2022/11/03 01:00:41;;;;;;;;;;;;;;;;;;354268;27;928;-64
2022/11/03 01:01:02;;;;;;;;;;;;;;;;;;354240;27;983;-64
2022/11/03 01:01:14;;;;;;;;;;;;;;;;;;355176;27;1335;-64
2022/11/03 01:01:25;;;;;;;;;;;;;;;;;;355751;27;797;-65
2022/11/03 01:01:39;;;;;;;;;;;;;;;;;;355726;27;959;-63
2022/11/03 01:01:49;;;;;;;;;;;;;;;;;;355703;27;987;-64
2022/11/03 01:01:59;;;;;;;;;;;;;;;;;;355635;27;943;-64
2022/11/03 01:02:09;;;;;;;;;;;;;;;;;;355735;27;924;-64
2022/11/03 01:02:20;;;;;;;;;;;;;;;;;;355684;27;999;-64
2022/11/03 01:02:30;;;;;;;;;;;;;;;;;;355722;27;812;-63
2022/11/03 01:02:40;;;;;;;;;;;;;;;;;;355675;27;911;-64
2022/11/03 01:02:50;;;;;;;;;;;;;;;;;;355670;27;785;-64
2022/11/03 01:03:00;;;;;;;;;;;;;;;;;;355667;27;928;-64
2022/11/03 01:03:10;;;;;;;;;;;;;;;;;;355680;27;968;-64
2022/11/03 01:03:21;;;;;;;;;;;;;;;;;;355698;27;931;-64
2022/11/03 01:03:31;;;;;;;;;;;;;;;;;;355707;27;912;-64
2022/11/03 01:06:48;;;;;;;;;;;;;;;;;;355731;27;864;-64
2022/11/03 01:06:58;;;;;;;;;;;;;;;;;;351168;28;947;-63
2022/11/03 01:07:08;;;;;;;;;;;;;;;;;;351193;28;1149;-64
2022/11/03 01:07:19;;;;;;;;;;;;;;;;;;351267;28;794;-64
2022/11/03 01:07:29;;;;;;;;;;;;;;;;;;351296;28;948;-64
2022/11/03 01:07:39;;;;;;;;;;;;;;;;;;351316;28;801;-64
2022/11/03 01:07:49;;;;;;;;;;;;;;;;;;351307;28;861;-64
2022/11/03 01:08:00;;;;;;;;;;;;;;;;;;351291;28;928;-64
2022/11/03 01:08:10;;;;;;;;;;;;;;;;;;351267;28;791;-64
2022/11/03 01:08:20;;;;;;;;;;;;;;;;;;351321;28;920;-64
2022/11/03 01:08:32;;;;;;;;;;;;;;;;;;351338;28;1055;-64
2022/11/03 01:08:42;;;;;;;;;;;;;;;;;;351357;28;833;-64
2022/11/03 01:08:52;;;;;;;;;;;;;;;;;;351299;28;920;-64
2022/11/03 01:09:03;;;;;;;;;;;;;;;;;;351190;28;876;-64
2022/11/03 01:09:13;;;;;;;;;;;;;;;;;;351285;28;925;-63
2022/11/03 01:09:25;;;;;;;;;;;;;;;;;;351272;28;1015;-63
2022/11/03 01:09:36;;;;;;;;;;;;;;;;;;351277;28;816;-64
2022/11/03 01:09:46;;;;;;;;;;;;;;;;;;352329;27;1039;-64
2022/11/03 01:09:56;;;;;;;;;;;;;;;;;;355631;27;970;-63
2022/11/03 01:10:08;;;;;;;;;;;;;;;;;;355702;27;955;-63
2022/11/03 01:10:18;;;;;;;;;;;;;;;;;;355698;27;986;-63
2022/11/03 01:10:28;;;;;;;;;;;;;;;;;;355692;27;916;-64
2022/11/03 01:11:42;;;;;;;;;;;;;;;;;;355600;27;777;-64
2022/11/03 01:11:45;;;;;;;;;;;;;;;;;;354299;27;876;-63
2022/11/03 01:12:00;;;;;;;;;;;;;;;;;;354289;27;845;-63
2022/11/03 01:12:11;;;;;;;;;;;;;;;;;;354175;27;876;-64
2022/11/03 01:12:21;;;;;;;;;;;;;;;;;;354278;27;976;-64
2022/11/03 01:12:31;;;;;;;;;;;;;;;;;;354290;27;857;-64
2022/11/03 01:12:41;;;;;;;;;;;;;;;;;;354333;27;1022;-63
2022/11/03 01:12:52;;;;;;;;;;;;;;;;;;354231;27;920;-63
2022/11/03 01:13:02;;;;;;;;;;;;;;;;;;354230;27;805;-64
2022/11/03 01:13:12;;;;;;;;;;;;;;;;;;354179;27;956;-64
2022/11/03 01:13:22;;;;;;;;;;;;;;;;;;354275;27;916;-64
2022/11/03 01:13:32;;;;;;;;;;;;;;;;;;354186;27;867;-64
2022/11/03 01:13:43;;;;;;;;;;;;;;;;;;354321;27;1003;-64
2022/11/03 01:13:53;;;;;;;;;;;;;;;;;;354204;27;903;-64
2022/11/03 01:14:03;;;;;;;;;;;;;;;;;;354317;27;852;-64
2022/11/03 01:14:14;;;;;;;;;;;;;;;;;;354163;27;774;-64
2022/11/03 01:14:26;;;;;;;;;;;;;;;;;;354268;27;983;-64
2022/11/03 01:14:37;;;;;;;;;;;;;;;;;;354294;27;766;-64
2022/11/03 01:14:49;;;;;;;;;;;;;;;;;;354251;27;932;-63
2022/11/03 01:14:59;;;;;;;;;;;;;;;;;;354274;28;860;-64
2022/11/03 01:15:09;;;;;;;;;;;;;;;;;;354244;27;978;-64
2022/11/03 01:15:20;;;;;;;;;;;;;;;;;;354183;27;884;-64
2022/11/03 01:15:30;;;;;;;;;;;;;;;;;;354269;27;931;-64
2022/11/03 01:15:40;;;;;;;;;;;;;;;;;;354223;27;986;-64
2022/11/03 01:15:50;;;;;;;;;;;;;;;;;;354254;27;1008;-64
2022/11/03 01:16:00;;;;;;;;;;;;;;;;;;354249;27;932;-64
2022/11/03 01:16:11;;;;;;;;;;;;;;;;;;354293;27;995;-64
2022/11/03 01:16:21;;;;;;;;;;;;;;;;;;354149;27;1003;-64
2022/11/03 01:16:32;;;;;;;;;;;;;;;;;;354277;27;943;-64
2022/11/03 01:16:42;;;;;;;;;;;;;;;;;;354200;27;1268;-63
2022/11/03 01:16:52;;;;;;;;;;;;;;;;;;354257;27;860;-64
2022/11/03 01:17:10;;;;;;;;;;;;;;;;;;354231;27;926;-64
2022/11/03 01:17:24;;;;;;;;;;;;;;;;;;354187;27;971;-64
2022/11/03 01:17:34;;;;;;;;;;;;;;;;;;354283;27;912;-63
2022/11/03 01:17:44;;;;;;;;;;;;;;;;;;354205;28;978;-64
2022/11/03 01:17:55;;;;;;;;;;;;;;;;;;354278;27;1015;-64
2022/11/03 01:18:05;;;;;;;;;;;;;;;;;;354262;27;833;-64
2022/11/03 01:18:15;;;;;;;;;;;;;;;;;;354354;27;1556;-64
2022/11/03 01:18:25;;;;;;;;;;;;;;;;;;355643;27;963;-64
2022/11/03 01:18:35;;;;;;;;;;;;;;;;;;355642;27;911;-63
2022/11/03 01:18:46;;;;;;;;;;;;;;;;;;355665;27;975;-63
2022/11/03 01:18:56;;;;;;;;;;;;;;;;;;355668;27;979;-64
2022/11/03 01:19:06;;;;;;;;;;;;;;;;;;355651;27;951;-64
2022/11/03 01:19:16;;;;;;;;;;;;;;;;;;355705;27;991;-64
2022/11/03 01:19:27;;;;;;;;;;;;;;;;;;355595;27;915;-64
2022/11/03 01:19:37;;;;;;;;;;;;;;;;;;354831;27;1290;-64
2022/11/03 01:19:47;;;;;;;;;;;;;;;;;;354242;27;911;-64
2022/11/03 01:19:57;;;;;;;;;;;;;;;;;;354263;27;966;-63
2022/11/03 01:20:08;;;;;;;;;;;;;;;;;;354256;27;947;-64
2022/11/03 01:20:18;;;;;;;;;;;;;;;;;;354192;27;1007;-64
2022/11/03 01:20:28;;;;;;;;;;;;;;;;;;354164;27;994;-64
2022/11/03 01:20:38;;;;;;;;;;;;;;;;;;354283;27;919;-64
2022/11/03 01:20:55;;;;;;;;;;;;;;;;;;354269;27;904;-64
2022/11/03 01:21:05;;;;;;;;;;;;;;;;;;353874;27;1573;-64
2022/11/03 01:21:16;;;;;;;;;;;;;;;;;;354214;27;1340;-64
2022/11/03 01:21:26;;;;;;;;;;;;;;;;;;354220;27;1067;-64
2022/11/03 01:21:37;;;;;;;;;;;;;;;;;;354057;27;1209;-64
2022/11/03 01:21:47;;;;;;;;;;;;;;;;;;354228;27;864;-64
2022/11/03 01:21:57;;;;;;;;;;;;;;;;;;354157;27;1244;-63
2022/11/03 01:22:08;;;;;;;;;;;;;;;;;;354198;27;1008;-63
2022/11/03 01:22:19;;;;;;;;;;;;;;;;;;354190;27;900;-63